Time;durP1;ratioP1;P1;durP2;ratioP2;P2;SDS_P1;SDS_P2;PMS_P1;PMS_P2;Temp;Humidity;BMP_temperature;BMP_pressure;BME280_temperature;BME280_humidity;BME280_pressure;Samples;Min_cycle;Max_cycle;Signal;HPM_P1;HPM_P2
2022/03/11 00:03:20;;;;;;;19.45;13.93;;;;;;;4.92;43.24;96965.03;4993215;28;20077;-81
2022/03/11 00:05:48;;;;;;;23.02;15.55;;;;;;;4.85;43.37;96966.50;4997289;28;20054;-82
2022/03/11 00:44:45;;;;;;;26.08;14.35;;;;;;;4.48;44.17;96973.16;6128277;22;20020;-82
2022/03/11 01:01:33;;;;;;;23.08;15.10;;;;;;;4.08;44.38;96975.78;4998464;28;20046;-81
2022/03/11 01:04:50;;;;;;;21.90;15.02;;;;;;;4.02;44.49;96981.47;4995673;28;20110;-83
2022/03/11 01:08:12;;;;;;;22.13;14.93;;;;;;;3.98;44.29;96968.03;4996107;28;20057;-83
2022/03/11 01:11:11;;;;;;;22.20;14.90;;;;;;;3.97;43.19;96966.38;4992348;28;20567;-83
2022/03/11 01:23:36;;;;;;;19.65;12.80;;;;;;;3.76;42.98;96951.00;4996800;28;20050;-83
2022/03/11 01:36:45;;;;;;;17.17;11.65;;;;;;;3.61;42.84;96941.97;4996793;28;20050;-83
2022/03/11 01:48:49;;;;;;;16.17;10.95;;;;;;;3.27;41.75;96937.03;5006319;28;20054;-83
2022/03/11 01:51:55;;;;;;;20.60;11.38;;;;;;;3.14;41.55;96933.84;5006688;28;20085;-83
2022/03/11 01:58:16;;;;;;;21.13;10.73;;;;;;;2.88;41.23;96929.06;4979513;28;20461;-83
2022/03/11 02:00:59;;;;;;;18.10;9.85;;;;;;;2.80;41.11;96926.28;4983102;28;20046;-84
2022/03/11 02:03:39;;;;;;;16.35;9.73;;;;;;;2.77;41.25;96931.72;4997453;28;20501;-82
2022/03/11 02:06:22;;;;;;;16.40;9.05;;;;;;;2.82;40.79;96933.00;5316804;22;20080;-82
2022/03/11 02:08:51;;;;;;;16.65;9.77;;;;;;;2.86;40.55;96936.09;5036453;28;20137;-81
2022/03/11 02:11:19;;;;;;;14.48;8.73;;;;;;;2.89;40.09;96941.84;5052157;28;20125;-83
2022/03/11 02:13:51;;;;;;;16.05;9.60;;;;;;;2.90;39.62;96940.06;5057937;28;20053;-86
2022/03/11 02:16:20;;;;;;;13.38;8.23;;;;;;;2.91;39.72;96948.63;5042034;28;20101;-83
2022/03/11 02:18:49;;;;;;;12.30;8.77;;;;;;;2.84;39.47;96941.41;5017715;28;20053;-82
2022/03/11 02:21:44;;;;;;;12.60;7.90;;;;;;;2.72;38.88;96944.16;5012750;28;20069;-82
2022/03/11 02:27:51;;;;;;;10.57;7.75;;;;;;;2.63;38.85;96938.81;5010540;28;20058;-81
2022/03/11 02:37:19;;;;;;;10.73;7.15;;;;;;;2.39;38.14;96943.34;5286457;22;20124;-81
2022/03/11 02:39:49;;;;;;;9.30;6.93;;;;;;;2.28;38.07;96941.63;5016540;28;20046;-82
2022/03/11 02:42:17;;;;;;;9.52;6.63;;;;;;;2.26;37.95;96940.94;5016438;28;20056;-81
2022/03/11 02:48:03;;;;;;;11.52;6.97;;;;;;;2.20;37.99;96931.13;5114050;22;20080;-81
2022/03/11 02:50:32;;;;;;;11.32;7.18;;;;;;;2.17;37.64;96928.78;5036385;28;20400;-82
2022/03/11 02:52:59;;;;;;;14.60;7.68;;;;;;;2.18;37.50;96923.50;5036318;28;20085;-81
2022/03/11 02:55:29;;;;;;;13.10;6.50;;;;;;;2.19;37.68;96916.63;5062011;22;20138;-81
2022/03/11 02:57:57;;;;;;;13.52;6.88;;;;;;;2.15;37.21;96912.66;5027778;28;20056;-80
2022/03/11 03:00:24;;;;;;;10.77;6.22;;;;;;;2.12;37.35;96915.44;5028652;28;20077;-81
2022/03/11 03:02:52;;;;;;;9.98;6.22;;;;;;;2.09;36.91;96918.28;5025702;28;20052;-80
2022/03/11 03:05:20;;;;;;;11.18;6.38;;;;;;;2.03;36.80;96920.41;5027148;28;20076;-80
2022/03/11 03:07:48;;;;;;;11.27;6.20;;;;;;;1.99;37.03;96916.44;5024567;28;20069;-80
2022/03/11 03:10:16;;;;;;;14.55;6.72;;;;;;;1.95;37.11;96920.19;5024286;28;20045;-80
2022/03/11 03:12:45;;;;;;;7.78;5.53;;;;;;;1.93;37.16;96911.75;5024182;28;20057;-80
2022/03/11 03:15:13;;;;;;;10.30;5.53;;;;;;;1.92;37.05;96917.84;5023633;28;20061;-80
2022/03/11 03:17:41;;;;;;;9.27;6.20;;;;;;;1.99;37.22;96905.31;5025873;28;20050;-79
2022/03/11 03:20:10;;;;;;;8.55;5.75;;;;;;;2.04;36.72;96909.16;5037944;28;20061;-80
2022/03/11 03:22:38;;;;;;;9.52;6.20;;;;;;;2.01;36.64;96906.00;5032273;28;20056;-80
2022/03/11 03:25:08;;;;;;;11.63;6.45;;;;;;;1.99;36.68;96905.31;5024906;28;20046;-80
2022/03/11 03:27:36;;;;;;;7.75;5.30;;;;;;;2.02;36.33;96915.38;5024016;28;20050;-80
2022/03/11 03:30:06;;;;;;;9.40;4.78;;;;;;;1.99;36.56;96919.00;5025963;28;20061;-81
2022/03/11 03:32:34;;;;;;;7.25;5.45;;;;;;;1.96;36.22;96916.66;5025741;28;20118;-80
2022/03/11 03:35:02;;;;;;;9.68;5.03;;;;;;;1.95;36.24;96917.59;5023938;28;20130;-80
2022/03/11 03:37:30;;;;;;;9.90;5.65;;;;;;;1.94;36.20;96922.88;5023823;28;20105;-80
2022/03/11 03:39:58;;;;;;;8.35;5.40;;;;;;;1.93;36.45;96923.81;5014065;28;20061;-80
2022/03/11 03:42:26;;;;;;;8.57;5.10;;;;;;;1.90;36.25;96917.13;5016183;28;20399;-80
2022/03/11 03:44:54;;;;;;;7.78;4.80;;;;;;;1.91;36.36;96918.78;5015046;28;20424;-79
2022/03/11 03:47:23;;;;;;;9.30;5.40;;;;;;;1.88;36.09;96929.31;5013981;28;20045;-79
2022/03/11 03:49:50;;;;;;;10.45;5.80;;;;;;;1.81;36.05;96928.16;5014503;28;20073;-79
2022/03/11 03:52:18;;;;;;;8.02;5.40;;;;;;;1.76;36.28;96914.84;5014312;28;20045;-80
2022/03/11 03:54:45;;;;;;;11.23;6.38;;;;;;;1.77;36.31;96916.44;5014579;28;20057;-79
2022/03/11 03:57:13;;;;;;;10.77;5.10;;;;;;;1.81;36.25;96910.94;5013861;28;20045;-79
2022/03/11 03:59:40;;;;;;;7.93;5.18;;;;;;;1.81;36.10;96912.72;5014476;28;20492;-80
2022/03/11 04:02:08;;;;;;;9.02;5.70;;;;;;;1.81;36.37;96907.56;5016806;28;20050;-78
2022/03/11 04:04:37;;;;;;;7.50;5.07;;;;;;;1.83;36.26;96918.56;5025347;28;20071;-80
2022/03/11 04:07:05;;;;;;;9.05;5.32;;;;;;;1.81;36.16;96915.28;5029383;28;20049;-80
2022/03/11 04:09:32;;;;;;;10.82;6.10;;;;;;;1.78;36.08;96912.97;5031567;28;20050;-80
2022/03/11 04:12:00;;;;;;;9.48;5.75;;;;;;;1.80;36.11;96918.81;5023538;28;20057;-80
2022/03/11 04:14:28;;;;;;;11.38;6.03;;;;;;;1.79;36.17;96914.59;5019154;28;20057;-80
2022/03/11 04:16:56;;;;;;;11.85;6.25;;;;;;;1.77;36.20;96914.72;5025738;28;20053;-79
2022/03/11 04:19:23;;;;;;;7.53;5.32;;;;;;;1.77;36.10;96911.31;5028829;28;20052;-80
2022/03/11 04:21:53;;;;;;;11.30;5.43;;;;;;;1.68;36.03;96906.88;5018516;28;20045;-80
2022/03/11 04:24:23;;;;;;;13.10;6.75;;;;;;;1.61;36.34;96907.34;5027057;28;20054;-79
2022/03/11 04:26:50;;;;;;;8.70;5.25;;;;;;;1.60;36.24;96904.91;5036473;28;20056;-79
2022/03/11 04:29:18;;;;;;;9.18;5.95;;;;;;;1.55;36.20;96918.13;5036951;28;20054;-80
2022/03/11 04:31:46;;;;;;;10.43;6.60;;;;;;;1.51;36.32;96905.59;5020934;28;20060;-80
2022/03/11 04:34:13;;;;;;;8.05;5.65;;;;;;;1.50;36.54;96914.25;5018143;28;20042;-80
2022/03/11 04:36:41;;;;;;;9.05;6.13;;;;;;;1.49;36.18;96902.34;5016467;28;20057;-80
2022/03/11 04:39:10;;;;;;;11.40;6.45;;;;;;;1.50;36.48;96904.78;5016571;28;20045;-80
2022/03/11 04:41:37;;;;;;;11.13;6.97;;;;;;;1.48;36.50;96911.81;5016568;28;20065;-80
2022/03/11 04:44:05;;;;;;;8.57;5.45;;;;;;;1.42;36.46;96913.09;5016391;28;20405;-80
2022/03/11 04:46:33;;;;;;;10.15;6.28;;;;;;;1.35;36.70;96905.97;5015617;28;20101;-79
2022/03/11 04:49:01;;;;;;;7.55;5.13;;;;;;;1.27;36.66;96898.00;5016111;28;20053;-79
2022/03/11 04:51:28;;;;;;;10.73;5.60;;;;;;;1.26;36.79;96898.97;5015119;28;20397;-79
2022/03/11 04:53:56;;;;;;;8.50;5.47;;;;;;;1.21;36.73;96894.16;5015542;28;20050;-80
2022/03/11 04:56:26;;;;;;;12.00;5.47;;;;;;;1.15;36.94;96895.44;5014085;28;20046;-79
2022/03/11 04:58:53;;;;;;;7.82;5.38;;;;;;;1.11;37.00;96888.91;5015346;28;20046;-80
2022/03/11 05:01:21;;;;;;;8.75;5.15;;;;;;;1.08;36.55;96901.97;5015384;28;20050;-79
2022/03/11 05:03:48;;;;;;;8.90;6.20;;;;;;;1.05;37.06;96899.66;5014931;28;20057;-80
2022/03/11 05:06:16;;;;;;;11.45;6.18;;;;;;;1.07;36.93;96897.75;5013954;28;20050;-78
2022/03/11 05:08:44;;;;;;;10.90;6.57;;;;;;;1.10;37.09;96896.75;5014973;28;20447;-80
2022/03/11 05:11:11;;;;;;;11.02;5.40;;;;;;;1.14;37.22;96893.81;5014980;28;20049;-79
2022/03/11 05:13:40;;;;;;;9.63;5.93;;;;;;;1.17;37.30;96892.75;5014713;28;20439;-80
2022/03/11 05:16:08;;;;;;;9.05;5.75;;;;;;;1.17;37.08;96891.00;5013860;28;20050;-79
2022/03/11 05:18:35;;;;;;;9.13;5.70;;;;;;;1.20;37.20;96893.38;5014420;28;20122;-79
2022/03/11 05:21:03;;;;;;;8.23;5.70;;;;;;;1.19;37.26;96896.84;5014712;28;20054;-80
2022/03/11 05:23:30;;;;;;;10.20;5.45;;;;;;;1.15;37.23;96889.50;5014373;28;20511;-80
2022/03/11 05:25:58;;;;;;;11.27;5.93;;;;;;;1.10;37.43;96891.59;5013366;28;20050;-79
2022/03/11 05:28:25;;;;;;;10.25;6.32;;;;;;;1.03;37.28;96904.09;5014350;28;20053;-79
2022/03/11 05:30:54;;;;;;;10.02;6.22;;;;;;;0.99;37.51;96894.97;5014185;28;20061;-79
2022/03/11 05:33:22;;;;;;;10.65;6.25;;;;;;;0.98;37.73;96893.31;5014022;28;20058;-79
2022/03/11 05:35:50;;;;;;;10.20;6.13;;;;;;;0.99;37.66;96897.53;5013684;28;20046;-79
2022/03/11 05:38:19;;;;;;;9.70;6.65;;;;;;;0.97;37.52;96892.50;5013966;28;20061;-80
2022/03/11 05:40:47;;;;;;;9.15;5.70;;;;;;;0.94;37.81;96905.59;5013902;28;20054;-79
2022/03/11 05:43:14;;;;;;;7.95;5.57;;;;;;;0.93;37.96;96908.28;5014441;28;20050;-79
2022/03/11 05:45:42;;;;;;;9.45;6.57;;;;;;;0.96;37.85;96906.31;5014076;28;20631;-80
2022/03/11 05:48:11;;;;;;;9.85;6.53;;;;;;;0.99;38.02;96911.19;5012300;28;20132;-78
2022/03/11 05:50:38;;;;;;;9.10;6.43;;;;;;;1.04;37.83;96918.56;5005112;28;20050;-77
2022/03/11 05:53:06;;;;;;;8.82;5.72;;;;;;;1.05;37.72;96924.50;5013020;28;20079;-77
2022/03/11 05:55:34;;;;;;;13.93;7.15;;;;;;;1.08;38.07;96921.72;5013177;28;20061;-76
2022/03/11 05:58:02;;;;;;;10.45;6.85;;;;;;;1.09;37.73;96926.72;5011997;28;20061;-77
2022/03/11 06:00:29;;;;;;;10.25;6.15;;;;;;;1.10;37.94;96930.94;5014627;28;20060;-77
2022/03/11 06:02:57;;;;;;;12.05;6.82;;;;;;;1.09;37.82;96925.91;5012781;28;20049;-76
2022/03/11 06:05:26;;;;;;;12.07;6.13;;;;;;;1.03;38.12;96925.44;5013358;28;20050;-76
2022/03/11 06:07:53;;;;;;;11.23;6.32;;;;;;;1.02;38.06;96925.56;5012384;28;20057;-77
2022/03/11 06:10:20;;;;;;;13.30;6.82;;;;;;;1.03;38.07;96927.22;5013536;28;20049;-76
2022/03/11 06:12:48;;;;;;;11.88;6.65;;;;;;;1.01;37.99;96923.94;5013832;28;20041;-77
2022/03/11 06:15:15;;;;;;;9.93;6.25;;;;;;;1.03;38.08;96937.47;5014075;28;20054;-77
2022/03/11 06:17:43;;;;;;;9.50;6.07;;;;;;;1.05;38.23;96924.50;5012626;28;20053;-76
2022/03/11 06:20:12;;;;;;;8.77;6.43;;;;;;;1.05;38.29;96922.78;5013756;28;20125;-77
2022/03/11 06:22:48;;;;;;;9.70;5.60;;;;;;;1.01;38.62;96931.66;5012293;28;20052;-78
2022/03/11 06:25:16;;;;;;;9.50;6.20;;;;;;;0.99;38.20;96936.88;5013346;28;20046;-76
2022/03/11 06:27:45;;;;;;;10.07;6.78;;;;;;;1.00;38.56;96937.69;5011352;28;20052;-77
2022/03/11 06:30:14;;;;;;;11.70;6.15;;;;;;;1.05;38.58;96940.75;5012423;28;20049;-76
2022/03/11 06:32:42;;;;;;;9.88;6.07;;;;;;;1.09;38.31;96941.34;5012128;28;20507;-76
2022/03/11 06:35:10;;;;;;;10.20;6.43;;;;;;;1.13;38.76;96943.56;5011896;28;20522;-76
2022/03/11 06:37:38;;;;;;;10.95;7.30;;;;;;;1.21;38.45;96946.38;5012142;28;20447;-76
2022/03/11 06:40:09;;;;;;;9.27;6.38;;;;;;;1.29;38.42;96939.84;5012599;28;20081;-76
2022/03/11 06:42:37;;;;;;;11.15;6.25;;;;;;;1.38;38.40;96939.97;5012527;28;20065;-76
2022/03/11 06:45:06;;;;;;;14.77;7.00;;;;;;;1.44;38.32;96938.69;5012926;28;20054;-76
2022/03/11 06:47:34;;;;;;;12.38;7.07;;;;;;;1.53;38.25;96935.44;5012470;28;20054;-76
2022/03/11 06:50:03;;;;;;;10.40;5.97;;;;;;;1.68;38.21;96945.47;5013212;28;20058;-75
2022/03/11 06:52:30;;;;;;;9.90;6.43;;;;;;;1.83;38.06;96939.13;5022516;28;20050;-76
2022/03/11 06:54:57;;;;;;;13.32;6.28;;;;;;;1.90;37.99;96937.72;5036493;28;20045;-75
2022/03/11 06:57:26;;;;;;;11.00;6.43;;;;;;;1.98;37.72;96935.38;5023419;28;20050;-76
2022/03/11 06:59:54;;;;;;;9.68;6.40;;;;;;;2.12;37.78;96936.03;5013410;28;20086;-76
2022/03/11 07:02:21;;;;;;;13.48;6.50;;;;;;;2.28;37.73;96921.03;5021090;28;20041;-76
2022/03/11 07:04:53;;;;;;;11.98;7.10;;;;;;;2.44;37.27;96936.88;5034971;28;20034;-76
2022/03/11 07:07:22;;;;;;;14.88;6.68;;;;;;;2.55;37.26;96940.34;5012384;28;20054;-76
2022/03/11 07:09:50;;;;;;;10.23;6.30;;;;;;;2.64;37.03;96939.63;5013063;28;20496;-76
2022/03/11 07:12:17;;;;;;;10.68;6.20;;;;;;;2.70;37.05;96936.53;5012955;28;20050;-76
2022/03/11 07:14:48;;;;;;;11.25;6.35;;;;;;;2.80;37.07;96939.19;5014859;28;20057;-76
2022/03/11 07:17:16;;;;;;;12.15;6.78;;;;;;;2.97;36.69;96941.19;5016346;28;20504;-76
2022/03/11 07:19:43;;;;;;;10.73;6.53;;;;;;;3.05;36.67;96953.47;5016726;28;20049;-76
2022/03/11 07:22:11;;;;;;;12.00;6.63;;;;;;;3.12;36.67;96949.44;5016876;28;20451;-77
2022/03/11 07:24:41;;;;;;;10.15;6.10;;;;;;;3.22;36.63;96958.06;5016984;28;20057;-76
2022/03/11 07:27:08;;;;;;;10.30;6.90;;;;;;;3.35;36.48;96957.03;5015812;28;20053;-75
2022/03/11 07:29:36;;;;;;;13.63;7.55;;;;;;;3.50;36.41;96955.75;5016547;28;20054;-76
2022/03/11 07:32:05;;;;;;;13.57;7.10;;;;;;;3.71;35.97;96956.50;5017105;28;20054;-76
2022/03/11 07:34:33;;;;;;;10.45;6.40;;;;;;;3.91;35.99;96951.41;5018440;28;20046;-76
2022/03/11 07:37:00;;;;;;;16.75;8.52;;;;;;;4.08;35.48;96958.53;5017544;28;20046;-76
2022/03/11 07:39:28;;;;;;;10.07;6.63;;;;;;;4.17;35.37;96948.38;5016411;28;20050;-76
2022/03/11 07:41:55;;;;;;;10.48;6.68;;;;;;;4.32;35.46;96936.69;5016334;28;20076;-76
2022/03/11 07:44:22;;;;;;;14.07;6.70;;;;;;;4.49;35.10;96948.94;5015993;28;20458;-76
2022/03/11 07:46:57;;;;;;;11.18;6.88;;;;;;;4.64;35.05;96956.31;5015504;28;20050;-76
2022/03/11 07:49:27;;;;;;;14.70;7.15;;;;;;;4.73;34.66;96961.47;5016153;28;20045;-76
2022/03/11 07:51:55;;;;;;;11.18;7.15;;;;;;;4.81;34.78;96957.38;5016285;28;20049;-77
2022/03/11 07:54:22;;;;;;;13.23;6.95;;;;;;;4.91;34.36;96953.03;5015873;28;20046;-76
2022/03/11 07:56:50;;;;;;;16.55;7.55;;;;;;;5.00;34.31;96952.19;5014944;28;20132;-76
2022/03/11 07:59:17;;;;;;;13.18;6.82;;;;;;;5.18;34.27;96952.31;5016791;28;20057;-76
2022/03/11 08:01:46;;;;;;;11.73;7.50;;;;;;;5.33;33.97;96950.91;5015987;28;20324;-76
2022/03/11 08:04:16;;;;;;;10.02;6.72;;;;;;;5.50;34.07;96953.72;5015763;28;20060;-76
2022/03/11 08:06:45;;;;;;;11.23;7.38;;;;;;;5.78;34.24;96967.53;5015265;28;20050;-76
2022/03/11 08:09:13;;;;;;;16.52;8.23;;;;;;;5.98;33.76;96953.56;5016836;28;20058;-76
2022/03/11 08:11:40;;;;;;;13.32;6.82;;;;;;;6.23;33.40;96956.44;5016466;28;20053;-77
2022/03/11 08:14:08;;;;;;;14.30;7.30;;;;;;;6.49;33.30;96947.94;5015901;28;20054;-76
2022/03/11 08:16:35;;;;;;;10.70;7.18;;;;;;;6.70;33.00;96945.06;5014793;28;20076;-76
2022/03/11 08:19:03;;;;;;;16.05;7.82;;;;;;;6.83;32.87;96963.66;5016605;28;20050;-76
2022/03/11 08:21:30;;;;;;;11.63;7.60;;;;;;;6.95;32.67;96957.28;5022584;28;20516;-77
2022/03/11 08:23:59;;;;;;;10.68;6.90;;;;;;;7.03;32.31;96958.31;5036179;28;20061;-76
2022/03/11 08:26:27;;;;;;;10.90;7.20;;;;;;;7.09;32.05;96948.13;5033917;28;20101;-76
2022/03/11 08:28:55;;;;;;;15.55;7.00;;;;;;;7.15;32.05;96951.88;5036246;28;20065;-76
2022/03/11 08:31:42;;;;;;;11.90;7.85;;;;;;;7.39;32.30;96951.22;5036494;28;20033;-76
2022/03/11 08:34:10;;;;;;;12.93;7.22;;;;;;;7.58;31.56;96958.00;5020462;28;20057;-76
2022/03/11 08:36:39;;;;;;;11.10;7.72;;;;;;;7.61;31.42;96949.94;5015610;28;20052;-76
2022/03/11 08:39:09;;;;;;;10.10;7.65;;;;;;;7.79;31.35;96952.44;5017639;28;20109;-77
2022/03/11 08:41:37;;;;;;;10.63;7.22;;;;;;;8.04;31.39;96954.16;5016506;28;20046;-76
2022/03/11 08:44:06;;;;;;;9.10;7.30;;;;;;;8.42;31.20;96951.22;5017011;28;20057;-77
2022/03/11 08:46:36;;;;;;;9.43;7.07;;;;;;;8.80;30.53;96938.59;5015154;28;20041;-77
2022/03/11 08:49:03;;;;;;;13.07;7.13;;;;;;;9.09;30.21;96938.09;5016019;28;20050;-77
2022/03/11 08:51:31;;;;;;;11.43;7.10;;;;;;;9.40;30.30;96942.59;5015638;28;20050;-77
2022/03/11 08:53:58;;;;;;;10.25;6.88;;;;;;;9.66;29.70;96935.41;5015659;28;20400;-77
2022/03/11 08:56:27;;;;;;;11.77;7.43;;;;;;;9.88;28.98;96948.66;5047758;22;20056;-81
2022/03/11 08:58:55;;;;;;;11.23;7.70;;;;;;;10.01;28.97;96953.34;5053829;28;20033;-81
2022/03/11 09:01:23;;;;;;;10.52;7.28;;;;;;;9.93;28.89;96950.75;5056257;28;20040;-80
2022/03/11 09:03:50;;;;;;;12.02;7.63;;;;;;;9.97;29.09;96947.66;5051910;28;20077;-81
2022/03/11 09:06:18;;;;;;;9.75;7.03;;;;;;;10.15;28.54;96947.41;5029631;28;20106;-81
2022/03/11 09:08:46;;;;;;;13.88;6.88;;;;;;;10.21;28.48;96938.09;5017848;28;20057;-81
2022/03/11 09:11:14;;;;;;;11.30;7.45;;;;;;;10.32;28.47;96940.38;5017075;28;20440;-81
2022/03/11 09:13:43;;;;;;;11.68;7.68;;;;;;;10.37;28.14;96917.19;5018320;28;20141;-80
2022/03/11 09:16:10;;;;;;;9.40;7.78;;;;;;;10.46;28.14;96931.00;5017937;28;20049;-81
2022/03/11 09:18:42;;;;;;;11.35;7.50;;;;;;;10.57;28.11;96916.72;5017568;28;20478;-81
2022/03/11 09:21:09;;;;;;;9.70;7.70;;;;;;;10.69;28.14;96921.38;5014952;28;20081;-81
2022/03/11 09:23:38;;;;;;;11.40;7.68;;;;;;;10.86;27.66;96916.81;5014634;28;20554;-80
2022/03/11 09:26:06;;;;;;;13.60;8.25;;;;;;;10.94;27.52;96921.19;5013829;28;20049;-80
2022/03/11 09:28:34;;;;;;;13.68;7.90;;;;;;;11.20;27.73;96912.16;5013989;28;20049;-80
2022/03/11 09:31:08;;;;;;;14.73;8.07;;;;;;;11.37;27.15;96924.06;5014298;28;20049;-81
2022/03/11 09:33:36;;;;;;;14.93;8.55;;;;;;;11.41;27.03;96922.69;5014242;28;20516;-81
2022/03/11 09:36:04;;;;;;;12.02;8.02;;;;;;;11.35;26.94;96912.97;5013623;28;20050;-81
2022/03/11 09:38:31;;;;;;;12.18;8.05;;;;;;;11.44;27.00;96919.75;5013009;28;20060;-81
2022/03/11 09:41:01;;;;;;;12.70;8.32;;;;;;;11.76;26.77;96912.53;5013620;28;20050;-81
2022/03/11 09:43:29;;;;;;;24.63;8.70;;;;;;;12.21;26.23;96915.91;5013957;28;20049;-81
2022/03/11 09:45:57;;;;;;;10.63;7.75;;;;;;;12.62;26.13;96917.16;5013220;28;20161;-79
2022/03/11 09:48:27;;;;;;;11.70;8.35;;;;;;;13.12;25.49;96905.72;5013680;28;20085;-79
2022/03/11 09:50:54;;;;;;;10.45;7.15;;;;;;;13.68;24.93;96906.69;5013789;28;20045;-79
2022/03/11 09:53:23;;;;;;;10.13;7.93;;;;;;;13.97;24.56;96914.31;5013741;28;20054;-79
2022/03/11 09:55:50;;;;;;;10.15;7.50;;;;;;;14.34;24.21;96909.59;5012938;28;20413;-79
2022/03/11 09:58:18;;;;;;;14.65;7.80;;;;;;;14.56;23.69;96904.19;5013974;28;20057;-79
2022/03/11 10:00:48;;;;;;;10.07;7.57;;;;;;;14.76;23.01;96904.25;5013739;28;20068;-79
2022/03/11 10:03:16;;;;;;;10.40;7.43;;;;;;;15.12;22.86;96897.78;5015323;28;20073;-79
2022/03/11 10:05:47;;;;;;;17.40;8.25;;;;;;;15.80;22.00;96898.28;5020433;28;20093;-80
2022/03/11 10:08:15;;;;;;;9.60;7.28;;;;;;;16.43;21.32;96900.25;5022223;28;20124;-80
2022/03/11 10:10:44;;;;;;;13.48;8.25;;;;;;;17.12;20.53;96892.50;5014224;28;20056;-79
2022/03/11 10:13:13;;;;;;;10.35;6.80;;;;;;;18.11;19.37;96898.59;5013890;28;20049;-80
2022/03/11 10:15:42;;;;;;;9.95;7.30;;;;;;;19.04;18.70;96904.41;5018133;28;20045;-79
2022/03/11 10:18:15;;;;;;;8.32;7.25;;;;;;;19.74;18.08;96897.53;5017239;28;20049;-79
2022/03/11 10:20:42;;;;;;;16.33;7.70;;;;;;;20.70;17.17;96899.66;5015363;28;20104;-79
2022/03/11 10:23:14;;;;;;;12.38;7.43;;;;;;;21.27;16.36;96899.53;5014388;28;20056;-79
2022/03/11 10:25:42;;;;;;;9.82;7.28;;;;;;;21.72;16.12;96898.59;5014058;28;20053;-79
2022/03/11 10:28:12;;;;;;;10.60;7.78;;;;;;;22.23;15.30;96901.09;5014073;28;20096;-79
2022/03/11 10:30:43;;;;;;;10.85;7.47;;;;;;;22.51;15.25;96894.75;5013913;28;20056;-80
2022/03/11 10:33:13;;;;;;;13.32;8.88;;;;;;;22.85;14.91;96907.84;5014473;28;20054;-80
2022/03/11 10:35:44;;;;;;;10.25;7.90;;;;;;;23.41;14.85;96894.97;5019600;28;20033;-80
2022/03/11 10:38:15;;;;;;;9.90;8.10;;;;;;;23.34;14.01;96888.28;5037060;28;20062;-80
2022/03/11 10:40:49;;;;;;;13.27;8.55;;;;;;;23.22;14.44;96891.94;5036512;28;20050;-80
2022/03/11 10:43:19;;;;;;;9.77;7.30;;;;;;;23.10;14.83;96893.19;5025295;28;20077;-80
2022/03/11 10:45:49;;;;;;;12.73;7.32;;;;;;;23.06;14.86;96886.75;5014691;28;20064;-81
2022/03/11 10:48:18;;;;;;;10.23;6.93;;;;;;;23.45;14.52;96882.75;5016683;28;20042;-81
2022/03/11 10:50:46;;;;;;;10.13;7.25;;;;;;;23.83;14.10;96891.53;5013810;28;20053;-80
2022/03/11 10:53:15;;;;;;;9.55;7.63;;;;;;;23.65;14.36;96873.28;5014022;28;20046;-81
2022/03/11 10:55:43;;;;;;;10.07;7.25;;;;;;;23.02;14.64;96879.28;5014774;28;20500;-81
2022/03/11 10:58:16;;;;;;;9.05;8.07;;;;;;;22.08;15.24;96877.00;5014462;28;20046;-81
2022/03/11 11:00:45;;;;;;;13.60;7.55;;;;;;;21.12;16.10;96891.34;5013266;28;20052;-81
2022/03/11 11:03:13;;;;;;;8.05;7.18;;;;;;;20.52;16.45;96887.41;5014211;28;20065;-81
2022/03/11 11:05:42;;;;;;;9.23;7.15;;;;;;;20.81;16.93;96880.25;5015602;28;20048;-82
2022/03/11 11:08:10;;;;;;;11.95;8.32;;;;;;;21.34;15.92;96873.66;5013373;28;20046;-81
2022/03/11 11:10:39;;;;;;;9.73;7.30;;;;;;;21.53;16.03;96870.75;5014597;28;20042;-80
2022/03/11 11:13:09;;;;;;;16.17;8.10;;;;;;;21.94;15.71;96857.97;5014740;28;20081;-80
2022/03/11 11:15:38;;;;;;;10.25;7.97;;;;;;;22.47;15.06;96864.41;5016733;28;20077;-81
2022/03/11 11:18:12;;;;;;;10.05;8.05;;;;;;;22.76;14.83;96866.78;5015567;28;20057;-81
2022/03/11 11:20:45;;;;;;;10.15;8.75;;;;;;;23.01;15.14;96853.72;5016041;28;20512;-81
2022/03/11 11:23:14;;;;;;;10.45;7.75;;;;;;;23.49;14.53;96858.31;5013631;28;20057;-81
2022/03/11 11:25:44;;;;;;;9.38;7.88;;;;;;;23.87;14.96;96859.03;5013184;28;20049;-81
2022/03/11 11:28:17;;;;;;;10.38;6.97;;;;;;;24.11;13.60;96859.38;5013253;28;20492;-80
2022/03/11 11:30:45;;;;;;;;;;;;;;;24.17;13.99;96856.47;5013694;28;20049;-81
2022/03/11 11:33:13;;;;;;;10.20;7.38;;;;;;;23.93;13.92;96847.34;5012669;28;19928;-81
2022/03/11 11:35:41;;;;;;;12.45;8.20;;;;;;;23.84;14.38;96842.50;5012505;28;20054;-81
2022/03/11 11:38:30;;;;;;;10.32;7.38;;;;;;;23.99;14.16;96843.63;5012333;28;20054;-81
2022/03/11 11:41:01;;;;;;;12.68;8.05;;;;;;;24.37;13.88;96842.38;5012895;28;20045;-81
2022/03/11 11:43:30;;;;;;;11.57;7.68;;;;;;;24.59;13.84;96850.16;5013194;28;20042;-81
2022/03/11 11:46:05;;;;;;;12.75;9.38;;;;;;;24.58;13.37;96843.25;5012710;28;20108;-81
2022/03/11 11:49:22;;;;;;;9.73;7.93;;;;;;;24.15;13.45;96842.59;5013448;28;20042;-81
2022/03/11 11:52:01;;;;;;;9.80;7.93;;;;;;;23.55;13.97;96830.63;5013177;28;20062;-81
2022/03/11 11:54:50;;;;;;;11.38;8.25;;;;;;;23.42;14.25;96822.06;5013041;28;20132;-81
2022/03/11 11:57:36;;;;;;;12.88;7.07;;;;;;;23.42;14.23;96810.63;5012048;28;20050;-81
2022/03/11 12:00:08;;;;;;;10.38;8.13;;;;;;;23.32;14.59;96807.91;5013332;28;20095;-81
2022/03/11 12:02:36;;;;;;;10.07;7.73;;;;;;;22.94;15.01;96801.78;5016260;28;20424;-81
2022/03/11 12:05:47;;;;;;;11.18;8.15;;;;;;;22.55;14.90;96799.38;5016791;28;20307;-81
2022/03/11 12:08:47;;;;;;;11.90;8.07;;;;;;;22.27;15.07;96795.13;4992837;28;20050;-81
2022/03/11 12:11:42;;;;;;;10.85;8.13;;;;;;;22.02;15.50;96794.59;5017374;28;20140;-80
2022/03/11 12:14:11;;;;;;;12.15;7.85;;;;;;;21.97;15.67;96793.72;5016753;28;20053;-81
2022/03/11 12:17:01;;;;;;;10.02;7.25;;;;;;;21.84;15.76;96786.16;5015646;28;20065;-81
2022/03/11 12:19:36;;;;;;;8.95;7.97;;;;;;;21.71;15.74;96785.50;5016327;28;20046;-81
2022/03/11 12:22:23;;;;;;;9.75;7.90;;;;;;;21.43;15.90;96780.34;5016828;28;20056;-80
2022/03/11 12:25:02;;;;;;;17.58;8.00;;;;;;;20.82;16.31;96786.41;5016198;28;20057;-81
2022/03/11 12:28:05;;;;;;;11.02;7.45;;;;;;;20.18;17.05;96776.06;5018644;28;20054;-81
2022/03/11 12:30:36;;;;;;;10.93;8.55;;;;;;;19.58;17.38;96781.81;5018100;28;20046;-80
2022/03/11 12:33:05;;;;;;;13.88;8.75;;;;;;;18.93;17.61;96771.22;5018886;28;20050;-79
2022/03/11 12:35:34;;;;;;;12.73;8.43;;;;;;;18.42;18.58;96770.00;5022246;28;20052;-80
2022/03/11 12:38:02;;;;;;;10.02;8.50;;;;;;;18.03;18.82;96772.19;5021713;28;20065;-79
2022/03/11 12:40:31;;;;;;;11.10;8.70;;;;;;;17.67;19.28;96768.59;5020606;28;20049;-80
2022/03/11 12:43:04;;;;;;;10.23;8.27;;;;;;;17.40;19.78;96768.09;5019958;28;20046;-79
2022/03/11 12:45:36;;;;;;;11.38;9.07;;;;;;;17.03;19.96;96752.31;5018647;28;20060;-80
2022/03/11 12:48:04;;;;;;;10.43;8.13;;;;;;;16.58;20.38;96749.84;5025040;28;20054;-80
2022/03/11 12:50:32;;;;;;;13.05;9.32;;;;;;;16.23;21.14;96754.78;5025382;28;20050;-80
2022/03/11 12:53:00;;;;;;;14.02;9.30;;;;;;;16.12;21.55;96742.31;5019577;28;20076;-79
2022/03/11 12:55:31;;;;;;;11.02;8.30;;;;;;;16.00;21.42;96744.81;5018991;28;20053;-79
2022/03/11 12:58:00;;;;;;;14.00;9.38;;;;;;;15.74;21.68;96743.97;5019296;28;20060;-80
2022/03/11 13:00:34;;;;;;;12.82;9.18;;;;;;;15.54;21.76;96746.66;5016739;28;20046;-79
2022/03/11 13:03:06;;;;;;;14.70;9.77;;;;;;;15.43;21.92;96742.03;5016911;28;20057;-79
2022/03/11 13:05:35;;;;;;;11.43;8.82;;;;;;;15.23;21.76;96742.94;5016890;28;20562;-79
2022/03/11 13:08:05;;;;;;;11.75;9.15;;;;;;;14.91;22.18;96736.78;5016074;28;20064;-80
2022/03/11 13:10:34;;;;;;;22.52;9.05;;;;;;;14.70;22.42;96732.56;5016510;28;20049;-79
2022/03/11 13:13:05;;;;;;;24.25;9.50;;;;;;;14.65;22.53;96740.25;5017927;28;20041;-81
2022/03/11 13:15:36;;;;;;;14.27;10.23;;;;;;;14.55;22.42;96737.22;5017559;28;20496;-80
2022/03/11 13:18:08;;;;;;;14.55;9.50;;;;;;;14.40;23.25;96727.69;5018167;28;20104;-79
2022/03/11 13:20:39;;;;;;;13.50;9.55;;;;;;;14.36;23.25;96716.00;5017266;28;20054;-79
2022/03/11 13:23:13;;;;;;;12.73;9.38;;;;;;;14.35;23.69;96719.63;5016938;28;20420;-79
2022/03/11 13:25:45;;;;;;;13.25;9.43;;;;;;;14.40;23.37;96711.94;5017991;28;20088;-79
2022/03/11 13:28:18;;;;;;;11.48;9.18;;;;;;;14.46;23.52;96710.34;5019753;28;20041;-79